sensor_id;sensor_type;location;lat;lon;timestamp;temperature;humidity
22173;DHT22;11252;50.596;17.648;2023-05-10T00:00:56;7.80;91.80
22173;DHT22;11252;50.596;17.648;2023-05-10T00:03:24;7.80;91.80
22173;DHT22;11252;50.596;17.648;2023-05-10T00:05:51;7.90;91.50
22173;DHT22;11252;50.596;17.648;2023-05-10T00:08:19;7.90;91.30
22173;DHT22;11252;50.596;17.648;2023-05-10T00:10:47;8.00;91.20
22173;DHT22;11252;50.596;17.648;2023-05-10T00:13:14;8.00;91.20
22173;DHT22;11252;50.596;17.648;2023-05-10T00:15:42;8.10;90.60
22173;DHT22;11252;50.596;17.648;2023-05-10T00:18:09;8.20;90.40
22173;DHT22;11252;50.596;17.648;2023-05-10T00:20:36;8.30;90.00
22173;DHT22;11252;50.596;17.648;2023-05-10T00:23:04;8.40;89.20
22173;DHT22;11252;50.596;17.648;2023-05-10T00:25:31;8.40;89.20
22173;DHT22;11252;50.596;17.648;2023-05-10T00:27:59;8.50;88.80
22173;DHT22;11252;50.596;17.648;2023-05-10T00:30:28;8.40;88.90
22173;DHT22;11252;50.596;17.648;2023-05-10T00:32:55;8.40;88.80
22173;DHT22;11252;50.596;17.648;2023-05-10T00:35:23;8.50;88.80
22173;DHT22;11252;50.596;17.648;2023-05-10T00:37:51;8.50;88.70
22173;DHT22;11252;50.596;17.648;2023-05-10T00:40:18;8.50;88.70
22173;DHT22;11252;50.596;17.648;2023-05-10T00:42:46;8.50;88.80
22173;DHT22;11252;50.596;17.648;2023-05-10T00:45:15;8.50;88.50
22173;DHT22;11252;50.596;17.648;2023-05-10T00:47:46;8.50;88.40
22173;DHT22;11252;50.596;17.648;2023-05-10T00:50:14;8.40;88.50
22173;DHT22;11252;50.596;17.648;2023-05-10T00:52:43;8.50;88.60
22173;DHT22;11252;50.596;17.648;2023-05-10T00:55:11;8.40;88.60
22173;DHT22;11252;50.596;17.648;2023-05-10T00:57:39;8.40;88.80
22173;DHT22;11252;50.596;17.648;2023-05-10T01:00:07;8.40;89.00
22173;DHT22;11252;50.596;17.648;2023-05-10T01:02:35;8.40;88.80
22173;DHT22;11252;50.596;17.648;2023-05-10T01:05:03;8.40;88.70
22173;DHT22;11252;50.596;17.648;2023-05-10T01:07:30;8.40;89.00
22173;DHT22;11252;50.596;17.648;2023-05-10T01:09:58;8.30;88.80
22173;DHT22;11252;50.596;17.648;2023-05-10T01:12:26;8.30;88.90
22173;DHT22;11252;50.596;17.648;2023-05-10T01:14:55;8.30;89.10
22173;DHT22;11252;50.596;17.648;2023-05-10T01:17:23;8.30;89.20
22173;DHT22;11252;50.596;17.648;2023-05-10T01:19:51;8.30;89.30
22173;DHT22;11252;50.596;17.648;2023-05-10T01:25:37;8.20;89.60
22173;DHT22;11252;50.596;17.648;2023-05-10T01:37:06;7.90;90.70
22173;DHT22;11252;50.596;17.648;2023-05-10T01:39:47;7.80;90.80
22173;DHT22;11252;50.596;17.648;2023-05-10T01:42:26;7.80;91.20
22173;DHT22;11252;50.596;17.648;2023-05-10T01:47:42;7.70;91.60
22173;DHT22;11252;50.596;17.648;2023-05-10T01:50:22;7.60;91.70
22173;DHT22;11252;50.596;17.648;2023-05-10T01:52:53;7.60;91.80
22173;DHT22;11252;50.596;17.648;2023-05-10T01:55:27;7.50;92.00
22173;DHT22;11252;50.596;17.648;2023-05-10T01:58:09;7.40;92.20
22173;DHT22;11252;50.596;17.648;2023-05-10T02:00:40;7.40;92.20
22173;DHT22;11252;50.596;17.648;2023-05-10T02:03:10;7.40;92.20
22173;DHT22;11252;50.596;17.648;2023-05-10T02:05:40;7.30;92.20
22173;DHT22;11252;50.596;17.648;2023-05-10T02:08:09;7.30;92.20
22173;DHT22;11252;50.596;17.648;2023-05-10T02:10:37;7.20;92.20
22173;DHT22;11252;50.596;17.648;2023-05-10T02:13:07;7.20;92.20
22173;DHT22;11252;50.596;17.648;2023-05-10T02:15:36;7.10;92.20
22173;DHT22;11252;50.596;17.648;2023-05-10T02:18:05;7.10;92.20
22173;DHT22;11252;50.596;17.648;2023-05-10T02:20:35;7.00;92.20
22173;DHT22;11252;50.596;17.648;2023-05-10T02:23:03;7.00;92.20
22173;DHT22;11252;50.596;17.648;2023-05-10T02:25:32;7.00;92.20
22173;DHT22;11252;50.596;17.648;2023-05-10T02:28:02;6.90;92.20
22173;DHT22;11252;50.596;17.648;2023-05-10T02:30:32;6.90;92.20
22173;DHT22;11252;50.596;17.648;2023-05-10T02:33:01;6.90;92.20
22173;DHT22;11252;50.596;17.648;2023-05-10T02:35:30;6.90;92.20
22173;DHT22;11252;50.596;17.648;2023-05-10T02:38:00;6.90;92.20
22173;DHT22;11252;50.596;17.648;2023-05-10T02:40:28;6.90;92.20
22173;DHT22;11252;50.596;17.648;2023-05-10T02:42:57;6.90;92.20
22173;DHT22;11252;50.596;17.648;2023-05-10T02:45:29;6.80;92.20
22173;DHT22;11252;50.596;17.648;2023-05-10T02:47:58;6.80;92.20
22173;DHT22;11252;50.596;17.648;2023-05-10T02:50:27;6.80;92.20
22173;DHT22;11252;50.596;17.648;2023-05-10T02:53:10;6.70;92.20
22173;DHT22;11252;50.596;17.648;2023-05-10T02:55:40;6.60;92.20
22173;DHT22;11252;50.596;17.648;2023-05-10T02:58:09;6.60;92.20
22173;DHT22;11252;50.596;17.648;2023-05-10T03:00:37;6.50;92.20
22173;DHT22;11252;50.596;17.648;2023-05-10T03:03:04;6.50;92.20
22173;DHT22;11252;50.596;17.648;2023-05-10T03:05:32;6.40;92.20
22173;DHT22;11252;50.596;17.648;2023-05-10T03:08:00;6.40;92.20
22173;DHT22;11252;50.596;17.648;2023-05-10T03:10:32;6.30;92.20
22173;DHT22;11252;50.596;17.648;2023-05-10T03:16:25;6.30;92.20
22173;DHT22;11252;50.596;17.648;2023-05-10T03:18:55;6.40;92.20
22173;DHT22;11252;50.596;17.648;2023-05-10T03:21:31;6.40;92.20
22173;DHT22;11252;50.596;17.648;2023-05-10T03:24:06;6.30;92.20
22173;DHT22;11252;50.596;17.648;2023-05-10T03:26:35;6.30;92.20
22173;DHT22;11252;50.596;17.648;2023-05-10T03:29:06;6.20;92.20
22173;DHT22;11252;50.596;17.648;2023-05-10T03:31:34;6.20;92.20
22173;DHT22;11252;50.596;17.648;2023-05-10T03:34:01;6.10;92.20
22173;DHT22;11252;50.596;17.648;2023-05-10T03:36:29;6.10;92.20
22173;DHT22;11252;50.596;17.648;2023-05-10T03:38:57;6.10;92.20
22173;DHT22;11252;50.596;17.648;2023-05-10T03:41:25;6.10;92.20
22173;DHT22;11252;50.596;17.648;2023-05-10T03:43:52;6.10;92.20
22173;DHT22;11252;50.596;17.648;2023-05-10T03:46:20;6.10;92.20
22173;DHT22;11252;50.596;17.648;2023-05-10T03:48:47;6.10;92.20
22173;DHT22;11252;50.596;17.648;2023-05-10T03:51:15;6.10;92.20
22173;DHT22;11252;50.596;17.648;2023-05-10T03:53:46;6.10;92.20
22173;DHT22;11252;50.596;17.648;2023-05-10T03:56:14;6.20;92.20
22173;DHT22;11252;50.596;17.648;2023-05-10T03:58:41;6.30;92.20
22173;DHT22;11252;50.596;17.648;2023-05-10T04:01:09;6.40;92.20
22173;DHT22;11252;50.596;17.648;2023-05-10T04:03:39;6.40;92.20
22173;DHT22;11252;50.596;17.648;2023-05-10T04:06:07;6.50;92.20
22173;DHT22;11252;50.596;17.648;2023-05-10T04:08:38;6.60;92.20
22173;DHT22;11252;50.596;17.648;2023-05-10T04:11:11;6.80;92.20
22173;DHT22;11252;50.596;17.648;2023-05-10T04:13:39;6.90;92.20
22173;DHT22;11252;50.596;17.648;2023-05-10T04:16:07;7.00;92.20
22173;DHT22;11252;50.596;17.648;2023-05-10T04:18:35;7.20;92.20
22173;DHT22;11252;50.596;17.648;2023-05-10T04:21:02;7.40;92.20
22173;DHT22;11252;50.596;17.648;2023-05-10T04:23:32;7.50;92.20
22173;DHT22;11252;50.596;17.648;2023-05-10T04:26:01;7.70;92.20
22173;DHT22;11252;50.596;17.648;2023-05-10T04:28:35;7.80;92.10
22173;DHT22;11252;50.596;17.648;2023-05-10T04:31:09;7.90;91.30
22173;DHT22;11252;50.596;17.648;2023-05-10T04:33:39;8.10;90.60
22173;DHT22;11252;50.596;17.648;2023-05-10T04:36:09;8.20;90.30
22173;DHT22;11252;50.596;17.648;2023-05-10T04:38:36;8.30;90.10
22173;DHT22;11252;50.596;17.648;2023-05-10T04:41:05;8.50;89.50
22173;DHT22;11252;50.596;17.648;2023-05-10T04:43:34;8.60;88.40
22173;DHT22;11252;50.596;17.648;2023-05-10T04:46:02;8.80;87.90
22173;DHT22;11252;50.596;17.648;2023-05-10T04:48:33;9.00;86.90
22173;DHT22;11252;50.596;17.648;2023-05-10T04:51:01;9.20;86.30
22173;DHT22;11252;50.596;17.648;2023-05-10T04:53:31;9.30;86.00
22173;DHT22;11252;50.596;17.648;2023-05-10T04:56:01;9.40;86.50
22173;DHT22;11252;50.596;17.648;2023-05-10T04:58:29;9.60;85.50
22173;DHT22;11252;50.596;17.648;2023-05-10T05:00:56;9.70;84.80
22173;DHT22;11252;50.596;17.648;2023-05-10T05:03:24;10.00;83.90
22173;DHT22;11252;50.596;17.648;2023-05-10T05:05:52;10.10;83.30
22173;DHT22;11252;50.596;17.648;2023-05-10T05:08:19;10.20;83.20
22173;DHT22;11252;50.596;17.648;2023-05-10T05:10:48;10.40;82.30
22173;DHT22;11252;50.596;17.648;2023-05-10T05:13:17;10.60;82.20
22173;DHT22;11252;50.596;17.648;2023-05-10T05:15:44;10.80;82.10
22173;DHT22;11252;50.596;17.648;2023-05-10T05:18:11;10.90;81.50
22173;DHT22;11252;50.596;17.648;2023-05-10T05:20:39;11.10;80.50
22173;DHT22;11252;50.596;17.648;2023-05-10T05:23:06;11.30;80.30
22173;DHT22;11252;50.596;17.648;2023-05-10T05:25:34;11.50;79.90
22173;DHT22;11252;50.596;17.648;2023-05-10T05:28:01;11.60;79.00
22173;DHT22;11252;50.596;17.648;2023-05-10T05:30:29;11.80;79.00
22173;DHT22;11252;50.596;17.648;2023-05-10T05:32:56;11.90;78.80
22173;DHT22;11252;50.596;17.648;2023-05-10T05:35:23;12.00;77.60
22173;DHT22;11252;50.596;17.648;2023-05-10T05:37:51;12.00;77.90
22173;DHT22;11252;50.596;17.648;2023-05-10T05:40:18;12.10;76.70
22173;DHT22;11252;50.596;17.648;2023-05-10T05:42:47;12.10;76.60
22173;DHT22;11252;50.596;17.648;2023-05-10T05:45:14;12.10;76.40
22173;DHT22;11252;50.596;17.648;2023-05-10T05:47:43;12.20;76.00
22173;DHT22;11252;50.596;17.648;2023-05-10T05:50:11;12.20;75.70
22173;DHT22;11252;50.596;17.648;2023-05-10T05:52:39;12.40;76.10
22173;DHT22;11252;50.596;17.648;2023-05-10T05:55:06;12.50;75.60
22173;DHT22;11252;50.596;17.648;2023-05-10T05:57:34;12.60;75.70
22173;DHT22;11252;50.596;17.648;2023-05-10T06:00:01;12.70;75.40
22173;DHT22;11252;50.596;17.648;2023-05-10T06:02:31;12.70;75.20
22173;DHT22;11252;50.596;17.648;2023-05-10T06:04:58;12.90;75.50
22173;DHT22;11252;50.596;17.648;2023-05-10T06:07:26;13.00;75.00
22173;DHT22;11252;50.596;17.648;2023-05-10T06:09:53;13.10;74.50
22173;DHT22;11252;50.596;17.648;2023-05-10T06:12:20;13.20;74.80
22173;DHT22;11252;50.596;17.648;2023-05-10T06:14:48;13.30;74.60
22173;DHT22;11252;50.596;17.648;2023-05-10T06:17:15;13.40;74.40
22173;DHT22;11252;50.596;17.648;2023-05-10T06:19:42;13.40;73.50
22173;DHT22;11252;50.596;17.648;2023-05-10T06:22:10;13.40;74.10
22173;DHT22;11252;50.596;17.648;2023-05-10T06:24:37;13.50;74.10
22173;DHT22;11252;50.596;17.648;2023-05-10T06:27:06;13.80;73.80
22173;DHT22;11252;50.596;17.648;2023-05-10T06:29:33;14.00;73.20
22173;DHT22;11252;50.596;17.648;2023-05-10T06:32:01;14.00;72.60
22173;DHT22;11252;50.596;17.648;2023-05-10T06:34:28;14.10;73.20
22173;DHT22;11252;50.596;17.648;2023-05-10T06:36:56;14.20;72.70
22173;DHT22;11252;50.596;17.648;2023-05-10T06:39:23;14.20;72.90
22173;DHT22;11252;50.596;17.648;2023-05-10T06:41:50;14.30;72.90
22173;DHT22;11252;50.596;17.648;2023-05-10T06:44:18;14.40;72.50
22173;DHT22;11252;50.596;17.648;2023-05-10T06:46:45;14.60;72.50
22173;DHT22;11252;50.596;17.648;2023-05-10T06:49:13;14.80;72.60
22173;DHT22;11252;50.596;17.648;2023-05-10T06:51:40;14.90;71.50
22173;DHT22;11252;50.596;17.648;2023-05-10T06:54:07;14.90;71.80
22173;DHT22;11252;50.596;17.648;2023-05-10T06:56:35;15.10;71.40
22173;DHT22;11252;50.596;17.648;2023-05-10T06:59:02;15.20;72.10
22173;DHT22;11252;50.596;17.648;2023-05-10T07:01:29;15.50;71.30
22173;DHT22;11252;50.596;17.648;2023-05-10T07:03:57;15.40;71.00
22173;DHT22;11252;50.596;17.648;2023-05-10T07:06:25;15.50;71.80
22173;DHT22;11252;50.596;17.648;2023-05-10T07:08:59;15.60;70.60
22173;DHT22;11252;50.596;17.648;2023-05-10T07:11:27;15.40;71.10
22173;DHT22;11252;50.596;17.648;2023-05-10T07:13:55;15.40;71.50
22173;DHT22;11252;50.596;17.648;2023-05-10T07:16:22;15.50;71.10
22173;DHT22;11252;50.596;17.648;2023-05-10T07:18:50;15.70;71.70
22173;DHT22;11252;50.596;17.648;2023-05-10T07:21:17;15.80;71.70
22173;DHT22;11252;50.596;17.648;2023-05-10T07:23:45;16.10;71.70
22173;DHT22;11252;50.596;17.648;2023-05-10T07:26:12;16.60;70.80
22173;DHT22;11252;50.596;17.648;2023-05-10T07:28:39;16.90;70.70
22173;DHT22;11252;50.596;17.648;2023-05-10T07:31:10;16.90;69.70
22173;DHT22;11252;50.596;17.648;2023-05-10T07:33:37;16.80;69.20
22173;DHT22;11252;50.596;17.648;2023-05-10T07:36:05;16.80;70.80
22173;DHT22;11252;50.596;17.648;2023-05-10T07:38:32;17.10;70.40
22173;DHT22;11252;50.596;17.648;2023-05-10T07:40:59;17.30;69.50
22173;DHT22;11252;50.596;17.648;2023-05-10T07:43:26;17.10;69.30
22173;DHT22;11252;50.596;17.648;2023-05-10T07:45:54;17.20;70.40
22173;DHT22;11252;50.596;17.648;2023-05-10T07:48:22;17.10;69.70
22173;DHT22;11252;50.596;17.648;2023-05-10T07:50:49;17.30;70.00
22173;DHT22;11252;50.596;17.648;2023-05-10T07:53:16;17.30;69.80
22173;DHT22;11252;50.596;17.648;2023-05-10T07:55:51;17.30;69.30
22173;DHT22;11252;50.596;17.648;2023-05-10T07:58:18;17.10;71.00
22173;DHT22;11252;50.596;17.648;2023-05-10T08:00:46;17.20;70.90
22173;DHT22;11252;50.596;17.648;2023-05-10T08:03:13;17.30;70.00
22173;DHT22;11252;50.596;17.648;2023-05-10T08:05:41;17.40;69.20
22173;DHT22;11252;50.596;17.648;2023-05-10T08:08:09;17.20;70.50
22173;DHT22;11252;50.596;17.648;2023-05-10T08:10:36;17.20;70.60
22173;DHT22;11252;50.596;17.648;2023-05-10T08:13:03;17.50;71.00
22173;DHT22;11252;50.596;17.648;2023-05-10T08:15:31;18.00;69.90
22173;DHT22;11252;50.596;17.648;2023-05-10T08:17:58;18.10;69.60
22173;DHT22;11252;50.596;17.648;2023-05-10T08:20:25;18.30;68.80
22173;DHT22;11252;50.596;17.648;2023-05-10T08:22:53;18.60;69.00
22173;DHT22;11252;50.596;17.648;2023-05-10T08:25:20;18.70;68.20
22173;DHT22;11252;50.596;17.648;2023-05-10T08:27:48;18.50;68.00
22173;DHT22;11252;50.596;17.648;2023-05-10T08:30:15;18.60;68.10
22173;DHT22;11252;50.596;17.648;2023-05-10T08:32:42;18.60;69.10
22173;DHT22;11252;50.596;17.648;2023-05-10T08:35:10;18.50;68.60
22173;DHT22;11252;50.596;17.648;2023-05-10T08:37:37;18.40;69.00
22173;DHT22;11252;50.596;17.648;2023-05-10T08:40:05;18.20;68.20
22173;DHT22;11252;50.596;17.648;2023-05-10T08:42:34;18.10;69.00
22173;DHT22;11252;50.596;17.648;2023-05-10T08:45:03;18.30;68.80
22173;DHT22;11252;50.596;17.648;2023-05-10T08:47:31;18.30;68.60
22173;DHT22;11252;50.596;17.648;2023-05-10T08:50:00;18.60;68.60
22173;DHT22;11252;50.596;17.648;2023-05-10T08:52:30;18.90;68.00
22173;DHT22;11252;50.596;17.648;2023-05-10T08:55:00;18.80;68.20
22173;DHT22;11252;50.596;17.648;2023-05-10T08:57:27;19.10;67.80
22173;DHT22;11252;50.596;17.648;2023-05-10T08:59:55;18.90;67.50
22173;DHT22;11252;50.596;17.648;2023-05-10T09:02:23;18.60;67.90
22173;DHT22;11252;50.596;17.648;2023-05-10T09:04:51;18.40;69.10
22173;DHT22;11252;50.596;17.648;2023-05-10T09:07:19;18.50;68.40
22173;DHT22;11252;50.596;17.648;2023-05-10T09:09:47;18.80;69.20
22173;DHT22;11252;50.596;17.648;2023-05-10T09:12:15;19.30;68.00
22173;DHT22;11252;50.596;17.648;2023-05-10T09:14:44;19.70;67.30
22173;DHT22;11252;50.596;17.648;2023-05-10T09:17:12;20.20;66.20
22173;DHT22;11252;50.596;17.648;2023-05-10T09:19:40;20.40;65.90
22173;DHT22;11252;50.596;17.648;2023-05-10T09:22:07;20.20;65.90
22173;DHT22;11252;50.596;17.648;2023-05-10T09:24:35;20.00;66.50
22173;DHT22;11252;50.596;17.648;2023-05-10T09:27:04;19.70;66.30
22173;DHT22;11252;50.596;17.648;2023-05-10T09:29:42;19.90;65.70
22173;DHT22;11252;50.596;17.648;2023-05-10T09:32:10;20.00;66.80
22173;DHT22;11252;50.596;17.648;2023-05-10T09:34:39;20.30;66.50
22173;DHT22;11252;50.596;17.648;2023-05-10T09:37:07;20.60;65.60
22173;DHT22;11252;50.596;17.648;2023-05-10T09:39:36;20.70;64.20
22173;DHT22;11252;50.596;17.648;2023-05-10T09:42:06;20.70;65.50
22173;DHT22;11252;50.596;17.648;2023-05-10T09:44:34;20.70;63.80
22173;DHT22;11252;50.596;17.648;2023-05-10T09:47:02;20.40;64.10
22173;DHT22;11252;50.596;17.648;2023-05-10T09:49:30;20.70;64.40
22173;DHT22;11252;50.596;17.648;2023-05-10T09:52:05;20.90;63.00
22173;DHT22;11252;50.596;17.648;2023-05-10T09:54:34;20.70;64.30
22173;DHT22;11252;50.596;17.648;2023-05-10T09:57:02;21.10;63.60
22173;DHT22;11252;50.596;17.648;2023-05-10T09:59:29;20.90;62.70
22173;DHT22;11252;50.596;17.648;2023-05-10T10:01:58;21.00;64.80
22173;DHT22;11252;50.596;17.648;2023-05-10T10:04:26;21.40;64.40
22173;DHT22;11252;50.596;17.648;2023-05-10T10:07:04;21.70;63.60
22173;DHT22;11252;50.596;17.648;2023-05-10T10:09:33;21.80;62.50
22173;DHT22;11252;50.596;17.648;2023-05-10T10:12:03;21.60;60.80
22173;DHT22;11252;50.596;17.648;2023-05-10T10:14:31;20.70;62.90
22173;DHT22;11252;50.596;17.648;2023-05-10T10:17:00;20.30;64.20
22173;DHT22;11252;50.596;17.648;2023-05-10T10:19:33;20.60;63.80
22173;DHT22;11252;50.596;17.648;2023-05-10T10:22:01;20.60;63.80
22173;DHT22;11252;50.596;17.648;2023-05-10T10:24:28;20.90;63.40
22173;DHT22;11252;50.596;17.648;2023-05-10T10:30:25;21.70;62.60
22173;DHT22;11252;50.596;17.648;2023-05-10T10:35:54;21.50;61.50
22173;DHT22;11252;50.596;17.648;2023-05-10T10:38:22;20.50;62.30
22173;DHT22;11252;50.596;17.648;2023-05-10T10:41:02;20.60;63.40
22173;DHT22;11252;50.596;17.648;2023-05-10T10:43:30;20.40;63.70
22173;DHT22;11252;50.596;17.648;2023-05-10T10:46:33;20.40;63.80
22173;DHT22;11252;50.596;17.648;2023-05-10T10:49:10;20.20;63.80
22173;DHT22;11252;50.596;17.648;2023-05-10T10:51:38;20.80;65.00
22173;DHT22;11252;50.596;17.648;2023-05-10T10:54:10;21.50;63.30
22173;DHT22;11252;50.596;17.648;2023-05-10T10:56:38;22.30;61.70
22173;DHT22;11252;50.596;17.648;2023-05-10T10:59:06;22.70;61.30
22173;DHT22;11252;50.596;17.648;2023-05-10T11:01:34;22.40;60.60
22173;DHT22;11252;50.596;17.648;2023-05-10T11:06:35;22.60;61.30
22173;DHT22;11252;50.596;17.648;2023-05-10T11:09:07;22.40;60.00
22173;DHT22;11252;50.596;17.648;2023-05-10T11:11:36;22.00;60.10
22173;DHT22;11252;50.596;17.648;2023-05-10T11:14:05;22.00;59.60
22173;DHT22;11252;50.596;17.648;2023-05-10T11:16:43;22.50;60.60
22173;DHT22;11252;50.596;17.648;2023-05-10T11:19:13;22.70;59.70
22173;DHT22;11252;50.596;17.648;2023-05-10T11:21:52;21.80;59.70
22173;DHT22;11252;50.596;17.648;2023-05-10T11:24:38;21.10;61.90
22173;DHT22;11252;50.596;17.648;2023-05-10T11:27:07;21.20;61.90
22173;DHT22;11252;50.596;17.648;2023-05-10T11:29:34;22.10;61.80
22173;DHT22;11252;50.596;17.648;2023-05-10T11:32:02;22.30;59.30
22173;DHT22;11252;50.596;17.648;2023-05-10T11:34:34;22.80;58.70
22173;DHT22;11252;50.596;17.648;2023-05-10T11:37:02;22.60;58.60
22173;DHT22;11252;50.596;17.648;2023-05-10T11:39:31;22.40;57.90
22173;DHT22;11252;50.596;17.648;2023-05-10T11:41:59;22.60;58.00
22173;DHT22;11252;50.596;17.648;2023-05-10T11:44:33;22.90;58.70
22173;DHT22;11252;50.596;17.648;2023-05-10T11:47:01;22.20;57.30
22173;DHT22;11252;50.596;17.648;2023-05-10T11:49:28;21.90;58.10
22173;DHT22;11252;50.596;17.648;2023-05-10T11:52:06;22.10;59.30
22173;DHT22;11252;50.596;17.648;2023-05-10T11:54:34;22.40;58.50
22173;DHT22;11252;50.596;17.648;2023-05-10T11:57:03;22.60;58.60
22173;DHT22;11252;50.596;17.648;2023-05-10T11:59:30;23.20;57.90
22173;DHT22;11252;50.596;17.648;2023-05-10T12:01:58;23.40;57.10
22173;DHT22;11252;50.596;17.648;2023-05-10T12:04:25;23.50;57.40
22173;DHT22;11252;50.596;17.648;2023-05-10T12:06:54;23.80;57.90
22173;DHT22;11252;50.596;17.648;2023-05-10T12:09:22;23.60;56.90
22173;DHT22;11252;50.596;17.648;2023-05-10T12:11:55;23.10;56.60
22173;DHT22;11252;50.596;17.648;2023-05-10T12:14:26;23.30;56.30
22173;DHT22;11252;50.596;17.648;2023-05-10T12:16:54;22.80;57.60
22173;DHT22;11252;50.596;17.648;2023-05-10T12:19:24;22.90;59.90
22173;DHT22;11252;50.596;17.648;2023-05-10T12:21:51;23.30;58.10
22173;DHT22;11252;50.596;17.648;2023-05-10T12:24:18;23.60;56.60
22173;DHT22;11252;50.596;17.648;2023-05-10T12:26:48;23.30;56.00
22173;DHT22;11252;50.596;17.648;2023-05-10T12:29:34;23.20;55.90
22173;DHT22;11252;50.596;17.648;2023-05-10T12:32:02;22.80;56.40
22173;DHT22;11252;50.596;17.648;2023-05-10T12:34:34;22.80;57.30
22173;DHT22;11252;50.596;17.648;2023-05-10T12:37:03;22.90;58.20
22173;DHT22;11252;50.596;17.648;2023-05-10T12:39:44;23.00;58.30
22173;DHT22;11252;50.596;17.648;2023-05-10T12:42:11;23.00;58.30
22173;DHT22;11252;50.596;17.648;2023-05-10T12:44:39;22.40;57.20
22173;DHT22;11252;50.596;17.648;2023-05-10T12:47:07;22.60;58.30
22173;DHT22;11252;50.596;17.648;2023-05-10T12:49:35;22.10;58.40
22173;DHT22;11252;50.596;17.648;2023-05-10T12:52:02;21.80;58.90
22173;DHT22;11252;50.596;17.648;2023-05-10T12:54:30;21.70;59.00
22173;DHT22;11252;50.596;17.648;2023-05-10T12:56:57;22.20;59.80
22173;DHT22;11252;50.596;17.648;2023-05-10T12:59:24;22.70;58.50
22173;DHT22;11252;50.596;17.648;2023-05-10T13:01:52;22.00;58.50
22173;DHT22;11252;50.596;17.648;2023-05-10T13:04:19;21.50;59.20
22173;DHT22;11252;50.596;17.648;2023-05-10T13:06:47;21.50;60.30
22173;DHT22;11252;50.596;17.648;2023-05-10T13:09:14;21.50;59.40
22173;DHT22;11252;50.596;17.648;2023-05-10T13:11:42;21.50;59.60
22173;DHT22;11252;50.596;17.648;2023-05-10T13:14:09;22.00;59.70
22173;DHT22;11252;50.596;17.648;2023-05-10T13:16:36;22.50;59.20
22173;DHT22;11252;50.596;17.648;2023-05-10T13:19:04;22.50;58.50
22173;DHT22;11252;50.596;17.648;2023-05-10T13:21:32;21.90;58.50
22173;DHT22;11252;50.596;17.648;2023-05-10T13:24:02;21.50;59.50
22173;DHT22;11252;50.596;17.648;2023-05-10T13:26:30;21.60;60.40
22173;DHT22;11252;50.596;17.648;2023-05-10T13:28:58;22.30;59.20
22173;DHT22;11252;50.596;17.648;2023-05-10T13:31:25;22.50;58.50
22173;DHT22;11252;50.596;17.648;2023-05-10T13:33:52;22.30;58.10
22173;DHT22;11252;50.596;17.648;2023-05-10T13:36:20;22.20;58.70
22173;DHT22;11252;50.596;17.648;2023-05-10T13:38:47;22.40;58.30
22173;DHT22;11252;50.596;17.648;2023-05-10T13:41:17;22.70;57.90
22173;DHT22;11252;50.596;17.648;2023-05-10T13:43:44;22.90;57.20
22173;DHT22;11252;50.596;17.648;2023-05-10T13:46:12;23.00;57.40
22173;DHT22;11252;50.596;17.648;2023-05-10T13:48:42;22.70;57.90
22173;DHT22;11252;50.596;17.648;2023-05-10T13:51:09;22.80;58.70
22173;DHT22;11252;50.596;17.648;2023-05-10T13:53:37;23.20;57.80
22173;DHT22;11252;50.596;17.648;2023-05-10T13:56:05;23.30;56.70
22173;DHT22;11252;50.596;17.648;2023-05-10T13:58:33;23.40;56.30
22173;DHT22;11252;50.596;17.648;2023-05-10T14:01:00;23.50;56.00
22173;DHT22;11252;50.596;17.648;2023-05-10T14:03:28;23.50;56.60
22173;DHT22;11252;50.596;17.648;2023-05-10T14:05:56;23.30;56.40
22173;DHT22;11252;50.596;17.648;2023-05-10T14:08:24;23.20;57.10
22173;DHT22;11252;50.596;17.648;2023-05-10T14:10:53;23.40;57.10
22173;DHT22;11252;50.596;17.648;2023-05-10T14:13:23;23.20;56.80
22173;DHT22;11252;50.596;17.648;2023-05-10T14:15:53;23.60;57.20
22173;DHT22;11252;50.596;17.648;2023-05-10T14:18:21;23.50;56.60
22173;DHT22;11252;50.596;17.648;2023-05-10T14:20:50;23.50;57.20
22173;DHT22;11252;50.596;17.648;2023-05-10T14:23:18;23.70;56.50
22173;DHT22;11252;50.596;17.648;2023-05-10T14:25:47;23.70;56.30
22173;DHT22;11252;50.596;17.648;2023-05-10T14:28:15;23.70;56.60
22173;DHT22;11252;50.596;17.648;2023-05-10T14:30:43;23.60;56.10
22173;DHT22;11252;50.596;17.648;2023-05-10T14:33:10;23.50;55.40
22173;DHT22;11252;50.596;17.648;2023-05-10T14:35:39;23.60;56.40
22173;DHT22;11252;50.596;17.648;2023-05-10T14:38:12;23.20;56.20
22173;DHT22;11252;50.596;17.648;2023-05-10T14:40:40;23.40;57.00
22173;DHT22;11252;50.596;17.648;2023-05-10T14:43:10;23.50;56.60
22173;DHT22;11252;50.596;17.648;2023-05-10T14:45:38;23.00;56.70
22173;DHT22;11252;50.596;17.648;2023-05-10T14:48:06;22.70;57.30
22173;DHT22;11252;50.596;17.648;2023-05-10T14:50:38;22.70;58.20
22173;DHT22;11252;50.596;17.648;2023-05-10T14:53:06;22.50;57.10
22173;DHT22;11252;50.596;17.648;2023-05-10T14:55:33;22.40;58.40
22173;DHT22;11252;50.596;17.648;2023-05-10T14:58:02;22.70;57.90
22173;DHT22;11252;50.596;17.648;2023-05-10T15:00:30;22.80;57.20
22173;DHT22;11252;50.596;17.648;2023-05-10T15:02:59;22.70;57.40
22173;DHT22;11252;50.596;17.648;2023-05-10T15:05:27;22.70;57.40
22173;DHT22;11252;50.596;17.648;2023-05-10T15:07:55;22.70;57.10
22173;DHT22;11252;50.596;17.648;2023-05-10T15:10:24;22.20;56.50
22173;DHT22;11252;50.596;17.648;2023-05-10T15:12:52;21.60;57.60
22173;DHT22;11252;50.596;17.648;2023-05-10T15:15:19;21.60;58.80
22173;DHT22;11252;50.596;17.648;2023-05-10T15:17:47;21.90;58.20
22173;DHT22;11252;50.596;17.648;2023-05-10T15:20:15;22.00;57.80
22173;DHT22;11252;50.596;17.648;2023-05-10T15:22:42;22.00;57.50
22173;DHT22;11252;50.596;17.648;2023-05-10T15:25:10;22.00;57.60
22173;DHT22;11252;50.596;17.648;2023-05-10T15:27:37;22.00;57.60
22173;DHT22;11252;50.596;17.648;2023-05-10T15:30:05;22.00;56.80
22173;DHT22;11252;50.596;17.648;2023-05-10T15:32:33;21.90;57.60
22173;DHT22;11252;50.596;17.648;2023-05-10T15:35:01;22.00;58.10
22173;DHT22;11252;50.596;17.648;2023-05-10T15:37:30;22.10;58.20
22173;DHT22;11252;50.596;17.648;2023-05-10T15:39:58;21.90;58.00
22173;DHT22;11252;50.596;17.648;2023-05-10T15:42:31;21.60;57.90
22173;DHT22;11252;50.596;17.648;2023-05-10T15:45:00;21.50;58.80
22173;DHT22;11252;50.596;17.648;2023-05-10T15:47:30;21.60;59.40
22173;DHT22;11252;50.596;17.648;2023-05-10T15:49:59;21.70;58.40
22173;DHT22;11252;50.596;17.648;2023-05-10T15:52:27;21.70;57.60
22173;DHT22;11252;50.596;17.648;2023-05-10T15:54:56;21.70;58.30
22173;DHT22;11252;50.596;17.648;2023-05-10T15:57:25;21.50;58.30